sensor_id;sensor_type;location;lat;lon;timestamp;P1;durP1;ratioP1;P2;durP2;ratioP2
75858;SDS011;64504;51.308;8.620;2023-02-22T00:00:34;15.35;;;10.30;;
75858;SDS011;64504;51.308;8.620;2023-02-22T00:03:10;13.32;;;9.25;;
75858;SDS011;64504;51.308;8.620;2023-02-22T00:05:39;19.75;;;7.30;;
75858;SDS011;64504;51.308;8.620;2023-02-22T00:08:14;13.25;;;8.25;;
75858;SDS011;64504;51.308;8.620;2023-02-22T00:10:41;15.20;;;10.90;;
75858;SDS011;64504;51.308;8.620;2023-02-22T00:13:09;18.42;;;12.05;;
75858;SDS011;64504;51.308;8.620;2023-02-22T00:15:37;14.80;;;9.55;;
75858;SDS011;64504;51.308;8.620;2023-02-22T00:18:06;26.23;;;14.50;;
75858;SDS011;64504;51.308;8.620;2023-02-22T00:20:34;18.42;;;12.43;;
75858;SDS011;64504;51.308;8.620;2023-02-22T00:23:05;18.80;;;12.45;;
75858;SDS011;64504;51.308;8.620;2023-02-22T00:25:31;22.30;;;15.82;;
75858;SDS011;64504;51.308;8.620;2023-02-22T00:27:57;26.38;;;15.38;;
75858;SDS011;64504;51.308;8.620;2023-02-22T00:30:26;26.50;;;15.82;;
75858;SDS011;64504;51.308;8.620;2023-02-22T00:32:54;25.20;;;16.23;;
75858;SDS011;64504;51.308;8.620;2023-02-22T00:35:21;25.95;;;18.33;;
75858;SDS011;64504;51.308;8.620;2023-02-22T00:37:48;24.58;;;15.93;;
75858;SDS011;64504;51.308;8.620;2023-02-22T00:40:25;24.65;;;15.18;;
75858;SDS011;64504;51.308;8.620;2023-02-22T00:42:57;26.20;;;16.17;;
75858;SDS011;64504;51.308;8.620;2023-02-22T00:45:24;16.75;;;14.73;;
75858;SDS011;64504;51.308;8.620;2023-02-22T00:47:51;20.08;;;15.95;;
75858;SDS011;64504;51.308;8.620;2023-02-22T00:50:18;26.83;;;18.45;;
75858;SDS011;64504;51.308;8.620;2023-02-22T00:52:45;21.48;;;15.63;;
75858;SDS011;64504;51.308;8.620;2023-02-22T00:55:15;21.30;;;13.95;;
75858;SDS011;64504;51.308;8.620;2023-02-22T00:57:52;28.02;;;17.17;;
75858;SDS011;64504;51.308;8.620;2023-02-22T01:00:35;21.40;;;13.38;;
75858;SDS011;64504;51.308;8.620;2023-02-22T01:03:04;22.02;;;15.25;;
75858;SDS011;64504;51.308;8.620;2023-02-22T01:05:30;23.85;;;15.00;;
75858;SDS011;64504;51.308;8.620;2023-02-22T01:07:57;23.45;;;16.95;;
75858;SDS011;64504;51.308;8.620;2023-02-22T01:10:25;19.63;;;12.10;;
75858;SDS011;64504;51.308;8.620;2023-02-22T01:12:52;19.25;;;13.50;;
75858;SDS011;64504;51.308;8.620;2023-02-22T01:15:19;16.10;;;11.93;;
75858;SDS011;64504;51.308;8.620;2023-02-22T01:17:46;18.38;;;12.63;;
75858;SDS011;64504;51.308;8.620;2023-02-22T01:20:12;13.82;;;11.55;;
75858;SDS011;64504;51.308;8.620;2023-02-22T01:22:38;15.95;;;10.05;;
75858;SDS011;64504;51.308;8.620;2023-02-22T01:25:05;15.43;;;11.88;;
75858;SDS011;64504;51.308;8.620;2023-02-22T01:27:32;16.30;;;11.45;;
75858;SDS011;64504;51.308;8.620;2023-02-22T01:29:58;19.42;;;12.73;;
75858;SDS011;64504;51.308;8.620;2023-02-22T01:32:25;14.77;;;10.50;;
75858;SDS011;64504;51.308;8.620;2023-02-22T01:34:53;18.02;;;11.65;;
75858;SDS011;64504;51.308;8.620;2023-02-22T01:37:18;20.10;;;12.93;;
75858;SDS011;64504;51.308;8.620;2023-02-22T01:39:44;16.15;;;12.95;;
75858;SDS011;64504;51.308;8.620;2023-02-22T01:42:09;16.38;;;12.65;;
75858;SDS011;64504;51.308;8.620;2023-02-22T01:44:36;18.15;;;13.35;;
75858;SDS011;64504;51.308;8.620;2023-02-22T01:47:03;19.15;;;11.73;;
75858;SDS011;64504;51.308;8.620;2023-02-22T01:49:44;16.20;;;11.40;;
75858;SDS011;64504;51.308;8.620;2023-02-22T01:52:14;13.90;;;10.95;;
75858;SDS011;64504;51.308;8.620;2023-02-22T01:54:42;19.77;;;13.88;;
75858;SDS011;64504;51.308;8.620;2023-02-22T01:57:21;17.27;;;13.70;;
75858;SDS011;64504;51.308;8.620;2023-02-22T01:59:49;18.15;;;13.43;;
75858;SDS011;64504;51.308;8.620;2023-02-22T02:02:17;14.70;;;11.55;;
75858;SDS011;64504;51.308;8.620;2023-02-22T02:04:44;13.90;;;10.90;;
75858;SDS011;64504;51.308;8.620;2023-02-22T02:07:10;16.67;;;11.15;;
75858;SDS011;64504;51.308;8.620;2023-02-22T02:14:52;21.40;;;12.65;;
75858;SDS011;64504;51.308;8.620;2023-02-22T02:17:18;20.15;;;12.77;;
75858;SDS011;64504;51.308;8.620;2023-02-22T02:22:46;18.10;;;12.70;;
75858;SDS011;64504;51.308;8.620;2023-02-22T02:28:16;22.60;;;13.98;;
75858;SDS011;64504;51.308;8.620;2023-02-22T02:36:39;15.18;;;11.77;;
75858;SDS011;64504;51.308;8.620;2023-02-22T02:39:19;26.08;;;13.75;;
75858;SDS011;64504;51.308;8.620;2023-02-22T02:41:53;20.75;;;14.10;;
75858;SDS011;64504;51.308;8.620;2023-02-22T02:47:00;22.50;;;13.52;;
75858;SDS011;64504;51.308;8.620;2023-02-22T02:52:08;19.85;;;15.35;;
75858;SDS011;64504;51.308;8.620;2023-02-22T02:54:36;22.02;;;14.40;;
75858;SDS011;64504;51.308;8.620;2023-02-22T02:57:02;22.20;;;16.23;;
75858;SDS011;64504;51.308;8.620;2023-02-22T02:59:32;27.85;;;15.05;;
75858;SDS011;64504;51.308;8.620;2023-02-22T03:07:40;25.33;;;16.15;;
75858;SDS011;64504;51.308;8.620;2023-02-22T03:10:14;27.60;;;16.95;;
75858;SDS011;64504;51.308;8.620;2023-02-22T03:15:26;27.30;;;17.00;;
75858;SDS011;64504;51.308;8.620;2023-02-22T03:26:03;20.40;;;15.18;;
75858;SDS011;64504;51.308;8.620;2023-02-22T03:28:37;21.33;;;14.88;;
75858;SDS011;64504;51.308;8.620;2023-02-22T03:31:08;24.08;;;14.73;;
75858;SDS011;64504;51.308;8.620;2023-02-22T03:33:38;19.35;;;13.02;;
75858;SDS011;64504;51.308;8.620;2023-02-22T03:36:13;23.02;;;14.82;;
75858;SDS011;64504;51.308;8.620;2023-02-22T03:38:43;26.75;;;18.65;;
75858;SDS011;64504;51.308;8.620;2023-02-22T03:41:10;30.70;;;18.83;;
75858;SDS011;64504;51.308;8.620;2023-02-22T03:43:39;19.40;;;12.55;;
75858;SDS011;64504;51.308;8.620;2023-02-22T03:46:07;21.52;;;15.80;;
75858;SDS011;64504;51.308;8.620;2023-02-22T03:51:05;28.27;;;13.90;;
75858;SDS011;64504;51.308;8.620;2023-02-22T03:53:31;23.35;;;15.82;;
75858;SDS011;64504;51.308;8.620;2023-02-22T03:55:58;24.98;;;14.10;;
75858;SDS011;64504;51.308;8.620;2023-02-22T03:58:26;21.85;;;14.07;;
75858;SDS011;64504;51.308;8.620;2023-02-22T04:00:55;29.65;;;14.65;;
75858;SDS011;64504;51.308;8.620;2023-02-22T04:03:21;23.33;;;13.90;;
75858;SDS011;64504;51.308;8.620;2023-02-22T04:05:46;31.42;;;16.42;;
75858;SDS011;64504;51.308;8.620;2023-02-22T04:08:12;22.20;;;15.00;;
75858;SDS011;64504;51.308;8.620;2023-02-22T04:10:38;18.08;;;13.20;;
75858;SDS011;64504;51.308;8.620;2023-02-22T04:13:04;32.05;;;15.43;;
75858;SDS011;64504;51.308;8.620;2023-02-22T04:15:33;24.40;;;13.52;;
75858;SDS011;64504;51.308;8.620;2023-02-22T04:17:58;28.33;;;17.40;;
75858;SDS011;64504;51.308;8.620;2023-02-22T04:20:24;17.98;;;14.00;;
75858;SDS011;64504;51.308;8.620;2023-02-22T04:22:52;17.70;;;14.57;;
75858;SDS011;64504;51.308;8.620;2023-02-22T04:25:19;23.95;;;15.80;;
75858;SDS011;64504;51.308;8.620;2023-02-22T04:27:45;18.80;;;14.48;;
75858;SDS011;64504;51.308;8.620;2023-02-22T04:30:11;21.48;;;15.73;;
75858;SDS011;64504;51.308;8.620;2023-02-22T04:32:37;18.48;;;12.82;;
75858;SDS011;64504;51.308;8.620;2023-02-22T04:35:03;17.38;;;12.25;;
75858;SDS011;64504;51.308;8.620;2023-02-22T04:37:29;14.63;;;12.18;;
75858;SDS011;64504;51.308;8.620;2023-02-22T04:39:55;27.45;;;12.55;;
75858;SDS011;64504;51.308;8.620;2023-02-22T04:42:21;17.83;;;12.40;;
75858;SDS011;64504;51.308;8.620;2023-02-22T04:44:46;16.13;;;12.20;;
75858;SDS011;64504;51.308;8.620;2023-02-22T04:47:12;20.55;;;12.13;;
75858;SDS011;64504;51.308;8.620;2023-02-22T04:49:37;23.60;;;12.40;;
75858;SDS011;64504;51.308;8.620;2023-02-22T04:52:03;21.75;;;12.77;;
75858;SDS011;64504;51.308;8.620;2023-02-22T04:54:28;17.05;;;12.23;;
75858;SDS011;64504;51.308;8.620;2023-02-22T04:56:55;17.83;;;9.82;;
75858;SDS011;64504;51.308;8.620;2023-02-22T04:59:21;17.83;;;11.30;;
75858;SDS011;64504;51.308;8.620;2023-02-22T05:01:47;17.10;;;12.82;;
75858;SDS011;64504;51.308;8.620;2023-02-22T05:04:12;18.95;;;12.68;;
75858;SDS011;64504;51.308;8.620;2023-02-22T05:06:38;12.98;;;10.90;;
75858;SDS011;64504;51.308;8.620;2023-02-22T05:09:03;21.58;;;12.23;;
75858;SDS011;64504;51.308;8.620;2023-02-22T05:11:28;13.93;;;12.20;;
75858;SDS011;64504;51.308;8.620;2023-02-22T05:13:54;17.23;;;13.13;;
75858;SDS011;64504;51.308;8.620;2023-02-22T05:16:19;16.75;;;12.43;;
75858;SDS011;64504;51.308;8.620;2023-02-22T05:18:45;18.33;;;11.07;;
75858;SDS011;64504;51.308;8.620;2023-02-22T05:21:12;24.25;;;13.70;;
75858;SDS011;64504;51.308;8.620;2023-02-22T05:23:37;14.20;;;12.20;;
75858;SDS011;64504;51.308;8.620;2023-02-22T05:26:03;17.27;;;11.90;;
75858;SDS011;64504;51.308;8.620;2023-02-22T05:28:32;18.15;;;10.85;;
75858;SDS011;64504;51.308;8.620;2023-02-22T05:30:58;19.48;;;12.95;;
75858;SDS011;64504;51.308;8.620;2023-02-22T05:33:23;26.73;;;12.25;;
75858;SDS011;64504;51.308;8.620;2023-02-22T05:35:49;20.27;;;13.77;;
75858;SDS011;64504;51.308;8.620;2023-02-22T05:38:14;24.73;;;13.50;;
75858;SDS011;64504;51.308;8.620;2023-02-22T05:40:40;17.75;;;11.90;;
75858;SDS011;64504;51.308;8.620;2023-02-22T05:43:07;23.15;;;13.57;;
75858;SDS011;64504;51.308;8.620;2023-02-22T05:45:32;11.30;;;10.00;;
75858;SDS011;64504;51.308;8.620;2023-02-22T05:47:58;14.80;;;10.65;;
75858;SDS011;64504;51.308;8.620;2023-02-22T05:50:23;17.50;;;12.82;;
75858;SDS011;64504;51.308;8.620;2023-02-22T05:52:49;20.63;;;13.20;;
75858;SDS011;64504;51.308;8.620;2023-02-22T05:55:16;16.65;;;14.90;;
75858;SDS011;64504;51.308;8.620;2023-02-22T05:57:44;22.83;;;13.93;;
75858;SDS011;64504;51.308;8.620;2023-02-22T06:00:09;21.35;;;13.43;;
75858;SDS011;64504;51.308;8.620;2023-02-22T06:02:38;17.85;;;13.60;;
75858;SDS011;64504;51.308;8.620;2023-02-22T06:05:04;26.25;;;12.02;;
75858;SDS011;64504;51.308;8.620;2023-02-22T06:07:29;26.95;;;14.52;;
75858;SDS011;64504;51.308;8.620;2023-02-22T06:09:55;16.58;;;12.00;;
75858;SDS011;64504;51.308;8.620;2023-02-22T06:12:20;15.65;;;13.60;;
75858;SDS011;64504;51.308;8.620;2023-02-22T06:14:46;18.85;;;10.52;;
75858;SDS011;64504;51.308;8.620;2023-02-22T06:17:12;15.82;;;10.45;;
75858;SDS011;64504;51.308;8.620;2023-02-22T06:19:38;13.02;;;10.52;;
75858;SDS011;64504;51.308;8.620;2023-02-22T06:22:04;18.40;;;12.52;;
75858;SDS011;64504;51.308;8.620;2023-02-22T06:24:30;15.48;;;11.70;;
75858;SDS011;64504;51.308;8.620;2023-02-22T06:26:56;19.73;;;13.93;;
75858;SDS011;64504;51.308;8.620;2023-02-22T06:29:26;22.13;;;12.55;;
75858;SDS011;64504;51.308;8.620;2023-02-22T06:31:52;25.48;;;16.00;;
75858;SDS011;64504;51.308;8.620;2023-02-22T06:34:18;18.15;;;14.05;;
75858;SDS011;64504;51.308;8.620;2023-02-22T06:36:45;15.18;;;10.50;;
75858;SDS011;64504;51.308;8.620;2023-02-22T06:39:16;20.33;;;11.93;;
75858;SDS011;64504;51.308;8.620;2023-02-22T06:41:43;15.68;;;11.13;;
75858;SDS011;64504;51.308;8.620;2023-02-22T06:44:09;14.30;;;9.80;;
75858;SDS011;64504;51.308;8.620;2023-02-22T06:46:35;18.90;;;10.68;;
75858;SDS011;64504;51.308;8.620;2023-02-22T06:49:01;17.52;;;11.50;;
75858;SDS011;64504;51.308;8.620;2023-02-22T06:51:26;21.40;;;10.18;;
75858;SDS011;64504;51.308;8.620;2023-02-22T06:53:54;18.77;;;10.65;;
75858;SDS011;64504;51.308;8.620;2023-02-22T06:56:19;12.88;;;9.57;;
75858;SDS011;64504;51.308;8.620;2023-02-22T06:58:45;16.52;;;11.57;;
75858;SDS011;64504;51.308;8.620;2023-02-22T07:01:11;16.60;;;10.43;;
75858;SDS011;64504;51.308;8.620;2023-02-22T07:03:43;16.70;;;9.95;;
75858;SDS011;64504;51.308;8.620;2023-02-22T07:06:08;12.70;;;9.57;;
75858;SDS011;64504;51.308;8.620;2023-02-22T07:08:35;15.20;;;9.80;;
75858;SDS011;64504;51.308;8.620;2023-02-22T07:11:00;12.13;;;9.50;;
75858;SDS011;64504;51.308;8.620;2023-02-22T07:13:25;12.52;;;9.52;;
75858;SDS011;64504;51.308;8.620;2023-02-22T07:15:51;15.68;;;12.13;;
75858;SDS011;64504;51.308;8.620;2023-02-22T07:18:17;12.25;;;10.20;;
75858;SDS011;64504;51.308;8.620;2023-02-22T07:20:42;21.88;;;11.32;;
75858;SDS011;64504;51.308;8.620;2023-02-22T07:23:08;26.67;;;11.45;;
75858;SDS011;64504;51.308;8.620;2023-02-22T07:25:33;16.63;;;10.63;;
75858;SDS011;64504;51.308;8.620;2023-02-22T07:27:59;17.63;;;11.27;;
75858;SDS011;64504;51.308;8.620;2023-02-22T07:30:26;9.65;;;8.65;;
75858;SDS011;64504;51.308;8.620;2023-02-22T07:32:55;10.93;;;9.68;;
75858;SDS011;64504;51.308;8.620;2023-02-22T07:35:26;10.50;;;8.35;;
75858;SDS011;64504;51.308;8.620;2023-02-22T07:37:56;10.95;;;8.45;;
75858;SDS011;64504;51.308;8.620;2023-02-22T07:40:22;13.75;;;8.10;;
75858;SDS011;64504;51.308;8.620;2023-02-22T07:45:17;10.18;;;6.28;;
75858;SDS011;64504;51.308;8.620;2023-02-22T07:47:44;10.35;;;8.70;;
75858;SDS011;64504;51.308;8.620;2023-02-22T07:50:11;8.27;;;6.80;;
75858;SDS011;64504;51.308;8.620;2023-02-22T07:52:38;15.02;;;11.48;;
75858;SDS011;64504;51.308;8.620;2023-02-22T07:55:04;15.00;;;10.80;;
75858;SDS011;64504;51.308;8.620;2023-02-22T07:57:31;16.00;;;12.00;;
75858;SDS011;64504;51.308;8.620;2023-02-22T07:59:56;17.27;;;12.48;;
75858;SDS011;64504;51.308;8.620;2023-02-22T08:02:22;13.43;;;10.63;;
75858;SDS011;64504;51.308;8.620;2023-02-22T08:04:49;14.43;;;11.85;;
75858;SDS011;64504;51.308;8.620;2023-02-22T08:07:15;25.27;;;14.75;;
75858;SDS011;64504;51.308;8.620;2023-02-22T08:09:40;27.15;;;12.90;;
75858;SDS011;64504;51.308;8.620;2023-02-22T08:12:06;18.55;;;12.38;;
75858;SDS011;64504;51.308;8.620;2023-02-22T08:14:31;29.40;;;12.70;;
75858;SDS011;64504;51.308;8.620;2023-02-22T08:16:57;18.63;;;11.50;;
75858;SDS011;64504;51.308;8.620;2023-02-22T08:19:23;13.35;;;9.45;;
75858;SDS011;64504;51.308;8.620;2023-02-22T08:21:48;15.95;;;12.43;;
75858;SDS011;64504;51.308;8.620;2023-02-22T08:24:14;18.70;;;11.63;;
75858;SDS011;64504;51.308;8.620;2023-02-22T08:26:45;15.13;;;11.93;;
75858;SDS011;64504;51.308;8.620;2023-02-22T08:29:11;18.00;;;12.18;;
75858;SDS011;64504;51.308;8.620;2023-02-22T08:31:38;14.77;;;12.50;;
75858;SDS011;64504;51.308;8.620;2023-02-22T08:34:04;18.38;;;11.88;;
75858;SDS011;64504;51.308;8.620;2023-02-22T08:36:29;17.23;;;11.35;;
75858;SDS011;64504;51.308;8.620;2023-02-22T08:38:57;14.55;;;11.77;;
75858;SDS011;64504;51.308;8.620;2023-02-22T08:41:24;16.48;;;11.40;;
75858;SDS011;64504;51.308;8.620;2023-02-22T08:43:49;16.58;;;11.00;;
75858;SDS011;64504;51.308;8.620;2023-02-22T08:46:15;13.80;;;10.70;;
75858;SDS011;64504;51.308;8.620;2023-02-22T08:48:51;16.08;;;11.60;;
75858;SDS011;64504;51.308;8.620;2023-02-22T08:51:18;14.07;;;12.35;;
75858;SDS011;64504;51.308;8.620;2023-02-22T08:53:44;20.35;;;9.98;;
75858;SDS011;64504;51.308;8.620;2023-02-22T08:56:11;14.55;;;10.30;;
75858;SDS011;64504;51.308;8.620;2023-02-22T08:58:36;14.13;;;9.65;;
75858;SDS011;64504;51.308;8.620;2023-02-22T09:01:02;10.13;;;8.95;;
75858;SDS011;64504;51.308;8.620;2023-02-22T09:03:27;13.63;;;9.30;;
75858;SDS011;64504;51.308;8.620;2023-02-22T09:05:53;8.90;;;7.20;;
75858;SDS011;64504;51.308;8.620;2023-02-22T09:08:19;19.77;;;8.75;;
75858;SDS011;64504;51.308;8.620;2023-02-22T09:10:45;10.18;;;7.00;;
75858;SDS011;64504;51.308;8.620;2023-02-22T09:13:11;8.02;;;7.22;;
75858;SDS011;64504;51.308;8.620;2023-02-22T09:15:42;10.60;;;7.53;;
75858;SDS011;64504;51.308;8.620;2023-02-22T09:18:11;10.90;;;7.70;;
75858;SDS011;64504;51.308;8.620;2023-02-22T09:20:39;12.80;;;9.55;;
75858;SDS011;64504;51.308;8.620;2023-02-22T09:23:05;13.05;;;8.20;;
75858;SDS011;64504;51.308;8.620;2023-02-22T09:25:31;10.38;;;8.27;;
75858;SDS011;64504;51.308;8.620;2023-02-22T09:27:58;11.27;;;7.32;;
75858;SDS011;64504;51.308;8.620;2023-02-22T09:30:28;10.40;;;7.32;;
75858;SDS011;64504;51.308;8.620;2023-02-22T09:33:02;17.17;;;7.32;;
75858;SDS011;64504;51.308;8.620;2023-02-22T09:35:30;9.75;;;6.65;;
75858;SDS011;64504;51.308;8.620;2023-02-22T09:38:01;8.50;;;6.05;;
75858;SDS011;64504;51.308;8.620;2023-02-22T09:40:29;8.45;;;6.53;;
75858;SDS011;64504;51.308;8.620;2023-02-22T09:42:59;7.57;;;6.03;;
75858;SDS011;64504;51.308;8.620;2023-02-22T09:48:40;8.02;;;5.38;;
75858;SDS011;64504;51.308;8.620;2023-02-22T09:51:14;11.98;;;5.57;;
75858;SDS011;64504;51.308;8.620;2023-02-22T09:53:43;6.90;;;6.20;;
75858;SDS011;64504;51.308;8.620;2023-02-22T09:56:10;6.70;;;5.82;;
75858;SDS011;64504;51.308;8.620;2023-02-22T09:58:44;6.22;;;5.60;;
75858;SDS011;64504;51.308;8.620;2023-02-22T10:01:21;12.27;;;5.90;;
75858;SDS011;64504;51.308;8.620;2023-02-22T10:06:25;5.93;;;4.50;;
75858;SDS011;64504;51.308;8.620;2023-02-22T10:08:52;7.68;;;4.97;;
75858;SDS011;64504;51.308;8.620;2023-02-22T10:19:57;5.03;;;4.03;;
75858;SDS011;64504;51.308;8.620;2023-02-22T10:27:43;5.93;;;3.38;;
75858;SDS011;64504;51.308;8.620;2023-02-22T10:33:02;5.45;;;3.63;;
75858;SDS011;64504;51.308;8.620;2023-02-22T10:35:34;6.35;;;4.43;;
75858;SDS011;64504;51.308;8.620;2023-02-22T10:38:09;8.85;;;4.18;;
75858;SDS011;64504;51.308;8.620;2023-02-22T10:40:42;11.18;;;5.75;;
75858;SDS011;64504;51.308;8.620;2023-02-22T10:43:12;6.30;;;4.47;;
75858;SDS011;64504;51.308;8.620;2023-02-22T10:45:38;6.18;;;4.00;;
75858;SDS011;64504;51.308;8.620;2023-02-22T10:48:05;4.13;;;3.50;;
75858;SDS011;64504;51.308;8.620;2023-02-22T10:50:33;5.60;;;4.35;;
75858;SDS011;64504;51.308;8.620;2023-02-22T10:53:02;4.55;;;4.15;;
75858;SDS011;64504;51.308;8.620;2023-02-22T10:55:27;5.68;;;3.85;;
75858;SDS011;64504;51.308;8.620;2023-02-22T10:58:03;5.18;;;4.25;;
75858;SDS011;64504;51.308;8.620;2023-02-22T11:00:35;3.63;;;3.03;;
75858;SDS011;64504;51.308;8.620;2023-02-22T11:03:22;4.85;;;3.25;;
75858;SDS011;64504;51.308;8.620;2023-02-22T11:05:48;4.22;;;3.83;;
75858;SDS011;64504;51.308;8.620;2023-02-22T11:10:49;4.05;;;3.28;;
75858;SDS011;64504;51.308;8.620;2023-02-22T11:13:30;7.10;;;5.75;;
75858;SDS011;64504;51.308;8.620;2023-02-22T11:16:00;9.07;;;6.07;;
75858;SDS011;64504;51.308;8.620;2023-02-22T11:18:32;13.75;;;8.40;;
75858;SDS011;64504;51.308;8.620;2023-02-22T11:21:03;9.80;;;7.65;;
75858;SDS011;64504;51.308;8.620;2023-02-22T11:23:31;10.40;;;7.53;;
75858;SDS011;64504;51.308;8.620;2023-02-22T11:26:06;9.20;;;7.60;;
75858;SDS011;64504;51.308;8.620;2023-02-22T11:28:33;9.80;;;8.13;;
75858;SDS011;64504;51.308;8.620;2023-02-22T11:33:35;10.43;;;8.98;;
75858;SDS011;64504;51.308;8.620;2023-02-22T11:36:02;11.50;;;8.65;;
75858;SDS011;64504;51.308;8.620;2023-02-22T11:38:52;10.63;;;8.70;;
75858;SDS011;64504;51.308;8.620;2023-02-22T11:41:20;12.52;;;7.40;;
75858;SDS011;64504;51.308;8.620;2023-02-22T11:43:51;15.32;;;8.85;;
75858;SDS011;64504;51.308;8.620;2023-02-22T11:46:22;14.20;;;8.70;;
75858;SDS011;64504;51.308;8.620;2023-02-22T11:49:03;9.93;;;8.93;;
75858;SDS011;64504;51.308;8.620;2023-02-22T11:56:41;12.35;;;8.25;;
75858;SDS011;64504;51.308;8.620;2023-02-22T12:01:56;11.68;;;10.38;;
75858;SDS011;64504;51.308;8.620;2023-02-22T12:09:47;13.45;;;10.27;;
75858;SDS011;64504;51.308;8.620;2023-02-22T12:17:48;14.68;;;11.85;;
75858;SDS011;64504;51.308;8.620;2023-02-22T12:20:50;11.45;;;10.35;;
75858;SDS011;64504;51.308;8.620;2023-02-22T12:26:19;11.93;;;9.55;;
75858;SDS011;64504;51.308;8.620;2023-02-22T12:28:54;13.80;;;11.13;;
75858;SDS011;64504;51.308;8.620;2023-02-22T12:31:41;13.93;;;9.68;;
75858;SDS011;64504;51.308;8.620;2023-02-22T12:36:51;12.15;;;10.93;;
75858;SDS011;64504;51.308;8.620;2023-02-22T12:39:24;12.32;;;9.98;;
75858;SDS011;64504;51.308;8.620;2023-02-22T12:41:57;13.90;;;11.52;;
75858;SDS011;64504;51.308;8.620;2023-02-22T12:44:28;19.08;;;10.65;;
75858;SDS011;64504;51.308;8.620;2023-02-22T12:46:57;16.60;;;10.07;;
75858;SDS011;64504;51.308;8.620;2023-02-22T12:55:17;12.70;;;10.95;;
75858;SDS011;64504;51.308;8.620;2023-02-22T13:08:48;11.27;;;10.18;;
75858;SDS011;64504;51.308;8.620;2023-02-22T13:11:27;13.80;;;10.05;;
75858;SDS011;64504;51.308;8.620;2023-02-22T13:16:45;15.57;;;13.23;;
75858;SDS011;64504;51.308;8.620;2023-02-22T13:22:15;18.65;;;12.50;;
75858;SDS011;64504;51.308;8.620;2023-02-22T13:24:54;13.90;;;11.32;;
75858;SDS011;64504;51.308;8.620;2023-02-22T13:27:29;14.70;;;10.50;;
75858;SDS011;64504;51.308;8.620;2023-02-22T13:29:59;11.70;;;9.25;;
75858;SDS011;64504;51.308;8.620;2023-02-22T13:46:56;13.07;;;9.93;;
75858;SDS011;64504;51.308;8.620;2023-02-22T13:52:28;12.52;;;8.68;;
75858;SDS011;64504;51.308;8.620;2023-02-22T13:54:59;10.95;;;8.98;;
75858;SDS011;64504;51.308;8.620;2023-02-22T13:57:28;11.77;;;9.35;;
75858;SDS011;64504;51.308;8.620;2023-02-22T14:10:45;15.10;;;8.80;;
75858;SDS011;64504;51.308;8.620;2023-02-22T14:13:16;17.63;;;8.02;;
75858;SDS011;64504;51.308;8.620;2023-02-22T14:18:45;14.80;;;10.40;;
75858;SDS011;64504;51.308;8.620;2023-02-22T14:21:14;11.57;;;9.52;;
75858;SDS011;64504;51.308;8.620;2023-02-22T14:23:49;17.42;;;8.90;;
75858;SDS011;64504;51.308;8.620;2023-02-22T14:26:33;17.70;;;10.73;;
75858;SDS011;64504;51.308;8.620;2023-02-22T14:36:22;11.88;;;7.93;;
75858;SDS011;64504;51.308;8.620;2023-02-22T14:38:51;14.25;;;9.48;;
75858;SDS011;64504;51.308;8.620;2023-02-22T14:41:20;12.48;;;7.70;;
75858;SDS011;64504;51.308;8.620;2023-02-22T14:43:48;17.13;;;8.48;;
75858;SDS011;64504;51.308;8.620;2023-02-22T14:46:16;10.15;;;7.65;;
75858;SDS011;64504;51.308;8.620;2023-02-22T14:48:48;12.15;;;8.20;;
75858;SDS011;64504;51.308;8.620;2023-02-22T14:51:20;12.45;;;8.18;;
75858;SDS011;64504;51.308;8.620;2023-02-22T14:56:30;10.32;;;8.15;;
75858;SDS011;64504;51.308;8.620;2023-02-22T15:01:41;7.05;;;6.40;;
75858;SDS011;64504;51.308;8.620;2023-02-22T15:04:24;9.02;;;7.60;;
75858;SDS011;64504;51.308;8.620;2023-02-22T15:06:51;11.45;;;7.80;;
75858;SDS011;64504;51.308;8.620;2023-02-22T15:09:20;11.65;;;7.32;;
75858;SDS011;64504;51.308;8.620;2023-02-22T15:14:18;10.70;;;7.28;;
75858;SDS011;64504;51.308;8.620;2023-02-22T15:16:46;14.15;;;8.80;;
75858;SDS011;64504;51.308;8.620;2023-02-22T15:19:14;15.30;;;10.50;;
75858;SDS011;64504;51.308;8.620;2023-02-22T15:21:49;11.93;;;8.48;;
75858;SDS011;64504;51.308;8.620;2023-02-22T15:24:26;13.55;;;10.02;;
75858;SDS011;64504;51.308;8.620;2023-02-22T15:26:52;14.18;;;8.63;;
75858;SDS011;64504;51.308;8.620;2023-02-22T15:29:20;16.98;;;10.23;;
75858;SDS011;64504;51.308;8.620;2023-02-22T15:31:47;12.98;;;10.25;;
75858;SDS011;64504;51.308;8.620;2023-02-22T15:36:38;10.05;;;7.95;;
75858;SDS011;64504;51.308;8.620;2023-02-22T15:41:59;9.13;;;7.47;;
75858;SDS011;64504;51.308;8.620;2023-02-22T15:44:26;11.20;;;6.65;;
75858;SDS011;64504;51.308;8.620;2023-02-22T15:46:52;7.07;;;6.03;;
75858;SDS011;64504;51.308;8.620;2023-02-22T15:49:21;8.82;;;7.10;;
75858;SDS011;64504;51.308;8.620;2023-02-22T15:51:48;8.15;;;6.63;;
75858;SDS011;64504;51.308;8.620;2023-02-22T15:54:24;10.52;;;6.40;;
75858;SDS011;64504;51.308;8.620;2023-02-22T15:56:50;11.93;;;7.15;;
75858;SDS011;64504;51.308;8.620;2023-02-22T15:59:20;11.63;;;6.93;;
75858;SDS011;64504;51.308;8.620;2023-02-22T16:01:49;8.65;;;5.75;;
75858;SDS011;64504;51.308;8.620;2023-02-22T16:04:20;8.52;;;7.15;;
75858;SDS011;64504;51.308;8.620;2023-02-22T16:06:49;9.23;;;6.55;;
75858;SDS011;64504;51.308;8.620;2023-02-22T16:09:20;10.77;;;7.68;;
75858;SDS011;64504;51.308;8.620;2023-02-22T16:11:49;13.20;;;8.40;;
75858;SDS011;64504;51.308;8.620;2023-02-22T16:14:25;12.05;;;9.20;;
75858;SDS011;64504;51.308;8.620;2023-02-22T16:19:52;9.30;;;8.38;;
75858;SDS011;64504;51.308;8.620;2023-02-22T16:22:36;12.18;;;10.85;;
75858;SDS011;64504;51.308;8.620;2023-02-22T16:25:14;19.58;;;11.73;;
75858;SDS011;64504;51.308;8.620;2023-02-22T16:27:46;11.43;;;9.93;;
75858;SDS011;64504;51.308;8.620;2023-02-22T16:30:20;11.50;;;10.30;;
75858;SDS011;64504;51.308;8.620;2023-02-22T16:32:48;10.48;;;8.15;;
75858;SDS011;64504;51.308;8.620;2023-02-22T16:35:13;11.00;;;9.55;;
75858;SDS011;64504;51.308;8.620;2023-02-22T16:40:26;9.45;;;8.13;;
75858;SDS011;64504;51.308;8.620;2023-02-22T16:42:55;11.40;;;8.35;;
75858;SDS011;64504;51.308;8.620;2023-02-22T16:45:22;11.68;;;8.68;;
75858;SDS011;64504;51.308;8.620;2023-02-22T16:47:52;9.43;;;8.30;;
75858;SDS011;64504;51.308;8.620;2023-02-22T16:50:19;8.85;;;7.22;;
75858;SDS011;64504;51.308;8.620;2023-02-22T16:52:46;8.48;;;7.63;;
75858;SDS011;64504;51.308;8.620;2023-02-22T16:55:15;12.80;;;8.27;;
75858;SDS011;64504;51.308;8.620;2023-02-22T16:57:43;10.90;;;7.15;;
75858;SDS011;64504;51.308;8.620;2023-02-22T17:00:17;10.55;;;7.20;;
75858;SDS011;64504;51.308;8.620;2023-02-22T17:02:46;6.43;;;4.80;;
75858;SDS011;64504;51.308;8.620;2023-02-22T17:05:13;8.75;;;5.97;;
75858;SDS011;64504;51.308;8.620;2023-02-22T17:07:39;5.85;;;5.15;;
75858;SDS011;64504;51.308;8.620;2023-02-22T17:10:06;12.95;;;6.10;;
75858;SDS011;64504;51.308;8.620;2023-02-22T17:12:32;10.65;;;5.72;;
75858;SDS011;64504;51.308;8.620;2023-02-22T17:14:57;10.40;;;6.22;;
75858;SDS011;64504;51.308;8.620;2023-02-22T17:17:23;7.47;;;5.25;;
75858;SDS011;64504;51.308;8.620;2023-02-22T17:19:50;10.57;;;5.65;;
75858;SDS011;64504;51.308;8.620;2023-02-22T17:22:17;7.93;;;5.05;;
75858;SDS011;64504;51.308;8.620;2023-02-22T17:24:44;5.63;;;5.13;;
75858;SDS011;64504;51.308;8.620;2023-02-22T17:27:09;8.35;;;5.65;;
75858;SDS011;64504;51.308;8.620;2023-02-22T17:29:34;7.63;;;5.55;;
75858;SDS011;64504;51.308;8.620;2023-02-22T17:32:00;13.65;;;6.93;;